Time;durP1;ratioP1;P1;durP2;ratioP2;P2;SDS_P1;SDS_P2;PMS_P1;PMS_P2;Temp;Humidity;BMP_temperature;BMP_pressure;BME280_temperature;BME280_humidity;BME280_pressure;Samples;Min_cycle;Max_cycle;Signal;HPM_P1;HPM_P2
2023/04/16 00:00:48;;;;;;;10.60;6.40;;;7.60;99.90;;;5.80;100.00;99786.97;10399302;28;98863;-85
2023/04/16 00:05:54;;;;;;;12.63;6.60;;;7.60;99.90;;;5.78;100.00;99782.84;10367444;28;96574;-85
2023/04/16 00:10:57;;;;;;;13.83;6.73;;;7.60;99.90;;;5.73;100.00;99790.38;10400593;27;97925;-85
2023/04/16 00:16:00;;;;;;;9.53;5.53;;;7.50;99.90;;;5.62;100.00;99784.31;10399612;28;96540;-85
2023/04/16 00:21:04;;;;;;;10.80;6.33;;;7.40;99.90;;;5.51;100.00;99795.03;10398999;27;96576;-84
2023/04/16 00:26:08;;;;;;;13.03;6.73;;;7.40;99.90;;;5.40;100.00;99797.88;10382421;28;96612;-83
2023/04/16 00:31:11;;;;;;;15.37;7.00;;;7.20;99.90;;;5.29;100.00;99803.31;10398969;27;96621;-83
2023/04/16 00:36:14;;;;;;;11.30;6.30;;;7.20;99.90;;;5.19;100.00;99807.78;10382262;28;96525;-84
2023/04/16 00:41:17;;;;;;;19.53;10.90;;;7.10;99.90;;;5.07;100.00;99802.66;10400927;28;96711;-83
2023/04/16 00:46:22;;;;;;;13.60;7.80;;;7.00;99.90;;;4.98;100.00;99808.81;10405680;27;96515;-83
2023/04/16 00:51:25;;;;;;;22.20;9.23;;;6.80;99.90;;;4.88;100.00;99815.88;10402334;28;96676;-84
2023/04/16 00:56:29;;;;;;;17.97;8.30;;;6.70;99.90;;;4.76;100.00;99811.72;10389317;28;96683;-84
2023/04/16 01:01:32;;;;;;;18.17;8.70;;;6.60;99.90;;;4.66;100.00;99811.72;10384638;27;98626;-83
2023/04/16 01:06:35;;;;;;;17.70;8.77;;;6.50;99.90;;;4.56;100.00;99809.13;10403281;27;97322;-83
2023/04/16 01:11:38;;;;;;;12.57;7.23;;;6.40;99.90;;;4.48;100.00;99814.22;10403080;27;97986;-84
2023/04/16 01:16:41;;;;;;;12.73;7.67;;;6.30;99.90;;;4.43;100.00;99799.81;10404247;28;97258;-84
2023/04/16 01:21:45;;;;;;;27.57;10.90;;;6.30;99.90;;;4.42;100.00;99808.69;10407208;28;96924;-84
2023/04/16 01:26:48;;;;;;;39.87;10.40;;;6.30;99.90;;;4.34;100.00;99817.28;10404859;28;97163;-85
2023/04/16 01:31:51;;;;;;;23.73;8.47;;;6.20;99.90;;;4.31;100.00;99817.53;10382787;27;98808;-85
2023/04/16 01:36:54;;;;;;;17.33;7.40;;;6.20;99.90;;;4.32;100.00;99813.97;10418594;28;96938;-83
2023/04/16 01:41:57;;;;;;;19.97;8.47;;;6.20;99.90;;;4.32;100.00;99816.59;10385947;27;96672;-83
2023/04/16 01:47:00;;;;;;;19.07;8.97;;;6.20;99.90;;;4.33;100.00;99809.53;10386656;27;96532;-83
2023/04/16 01:52:03;;;;;;;17.37;8.37;;;6.20;99.90;;;4.32;100.00;99827.09;10401769;27;96688;-84
2023/04/16 01:57:07;;;;;;;21.97;10.13;;;6.20;99.90;;;4.28;100.00;99820.44;10364587;28;96496;-85
2023/04/16 02:02:13;;;;;;;21.20;10.13;;;6.20;99.90;;;4.23;100.00;99820.84;10401976;27;96673;-83
2023/04/16 02:07:16;;;;;;;19.93;10.13;;;6.10;99.90;;;4.20;100.00;99821.13;10382845;27;98279;-83
2023/04/16 02:12:19;;;;;;;18.37;8.73;;;6.10;99.90;;;4.15;100.00;99817.25;10361578;28;96658;-85
2023/04/16 02:17:22;;;;;;;20.07;9.87;;;6.00;99.90;;;4.10;100.00;99822.91;10373678;27;96654;-84
2023/04/16 02:22:25;;;;;;;21.60;9.73;;;6.00;99.90;;;4.08;100.00;99821.38;10387411;27;96689;-86
2023/04/16 02:27:28;;;;;;;25.57;12.57;;;5.90;99.90;;;4.06;100.00;99823.31;10359533;27;98361;-86
2023/04/16 02:32:32;;;;;;;36.43;15.60;;;5.90;99.90;;;4.10;100.00;99835.22;10407607;27;96840;-86
2023/04/16 02:37:34;;;;;;;26.53;10.90;;;5.90;99.90;;;4.12;100.00;99828.03;10418282;27;96627;-86
2023/04/16 02:42:37;;;;;;;27.00;10.33;;;6.00;99.90;;;4.08;100.00;99835.38;10386641;28;97011;-87
2023/04/16 02:47:40;;;;;;;26.73;11.33;;;6.00;99.90;;;4.11;100.00;99832.47;10368334;27;98484;-86
2023/04/16 02:52:43;;;;;;;32.33;13.80;;;6.00;99.90;;;4.11;100.00;99829.81;10384514;27;96737;-87
2023/04/16 02:57:46;;;;;;;26.00;10.20;;;6.00;99.90;;;4.08;100.00;99835.38;10385114;28;96545;-86
2023/04/16 03:02:49;;;;;;;27.93;11.93;;;6.00;99.90;;;4.04;100.00;99841.84;10401480;27;96653;-87
2023/04/16 03:07:55;;;;;;;28.37;11.53;;;5.90;99.90;;;4.02;100.00;99844.63;10410671;27;98134;-87
2023/04/16 03:12:59;;;;;;;21.57;9.83;;;5.90;99.90;;;3.97;100.00;99846.00;10414934;27;98434;-87
2023/04/16 03:18:02;;;;;;;18.03;8.37;;;5.90;99.90;;;3.91;100.00;99852.63;10384044;27;96614;-85
2023/04/16 03:23:05;;;;;;;18.23;7.40;;;5.80;99.90;;;3.84;100.00;99843.63;10387931;27;98332;-84
2023/04/16 03:28:08;;;;;;;20.80;8.50;;;5.70;99.90;;;3.79;100.00;99843.16;10400872;28;98291;-83
2023/04/16 03:33:11;;;;;;;16.80;8.70;;;5.70;99.90;;;3.75;100.00;99857.53;10409072;27;96527;-84
2023/04/16 03:38:14;;;;;;;41.63;16.90;;;5.60;99.90;;;3.74;100.00;99867.22;10417804;27;96619;-84
2023/04/16 03:43:17;;;;;;;32.17;11.63;;;5.70;99.90;;;3.75;100.00;99868.03;10389366;27;96582;-83
2023/04/16 03:48:20;;;;;;;28.30;14.03;;;5.60;99.90;;;3.76;100.00;99880.22;10383186;28;96748;-84
2023/04/16 03:53:23;;;;;;;32.17;12.80;;;5.70;99.90;;;3.76;100.00;99885.47;10382392;28;96967;-84
2023/04/16 03:58:26;;;;;;;32.23;11.73;;;5.70;99.90;;;3.76;100.00;99902.06;10382921;27;97334;-84
2023/04/16 04:03:29;;;;;;;27.40;11.50;;;5.70;99.90;;;3.76;100.00;99904.69;10387289;27;96509;-83
2023/04/16 04:08:32;;;;;;;20.47;8.97;;;5.70;99.90;;;3.74;100.00;99911.91;10406915;27;96909;-83
2023/04/16 04:13:35;;;;;;;23.67;10.63;;;5.70;99.90;;;3.74;100.00;99911.06;10386967;27;97303;-85
2023/04/16 04:18:38;;;;;;;20.47;9.40;;;5.70;99.90;;;3.80;100.00;99913.16;10390717;27;97408;-78
2023/04/16 04:23:42;;;;;;;17.70;8.70;;;5.70;99.90;;;3.84;100.00;99913.72;10403117;27;96638;-78
2023/04/16 04:28:45;;;;;;;21.93;8.90;;;5.70;99.90;;;3.93;100.00;99907.69;10390150;28;96606;-78
2023/04/16 04:33:48;;;;;;;17.87;8.17;;;5.80;99.90;;;4.02;100.00;99912.16;10401736;27;97407;-79
2023/04/16 04:38:51;;;;;;;15.23;8.67;;;5.90;99.90;;;4.11;100.00;99905.25;10402908;27;97525;-79
2023/04/16 04:43:54;;;;;;;18.10;8.27;;;5.90;99.90;;;4.21;100.00;99903.50;10398096;27;96623;-79
2023/04/16 04:48:57;;;;;;;21.83;9.40;;;6.00;99.90;;;4.39;100.00;99904.50;10384314;28;97159;-79
2023/04/16 04:54:00;;;;;;;19.47;9.23;;;6.20;99.90;;;4.67;100.00;99910.75;10400918;27;97510;-79
2023/04/16 04:59:03;;;;;;;21.30;10.87;;;6.50;99.90;;;4.92;100.00;99911.19;10386038;27;96742;-78
2023/04/16 05:04:06;;;;;;;25.80;12.80;;;6.70;99.90;;;5.08;100.00;99917.56;10387230;27;97248;-78
2023/04/16 05:09:12;;;;;;;27.23;11.43;;;6.80;99.90;;;5.20;100.00;99931.44;10404344;28;96985;-78
2023/04/16 05:14:16;;;;;;;32.23;15.40;;;7.00;99.90;;;5.27;100.00;99936.97;10402726;27;98241;-78
2023/04/16 05:19:19;;;;;;;25.87;11.20;;;7.10;99.90;;;5.32;100.00;99935.56;10386064;28;96530;-78
2023/04/16 05:24:22;;;;;;;18.90;10.50;;;7.10;99.90;;;5.35;100.00;99937.13;10396870;27;98572;-78
2023/04/16 05:29:25;;;;;;;20.50;10.87;;;7.10;99.90;;;5.36;100.00;99938.78;10404222;28;96596;-79
2023/04/16 05:34:28;;;;;;;24.07;12.17;;;7.10;99.90;;;5.40;100.00;99945.44;10371980;27;97076;-78
2023/04/16 05:39:31;;;;;;;16.30;8.37;;;7.20;99.90;;;5.42;100.00;99940.84;10397580;27;98030;-78
2023/04/16 05:44:34;;;;;;;16.53;9.57;;;7.20;99.90;;;5.44;100.00;99936.25;10395835;27;97581;-78
2023/04/16 05:49:37;;;;;;;28.47;13.93;;;7.20;99.90;;;5.56;100.00;99947.47;10407219;27;97529;-78
2023/04/16 05:54:40;;;;;;;17.50;10.13;;;7.30;99.90;;;5.68;100.00;99951.59;10394193;27;97383;-79
2023/04/16 05:59:43;;;;;;;22.83;11.20;;;7.40;99.90;;;5.84;100.00;99962.41;10362885;27;98196;-80
2023/04/16 06:04:46;;;;;;;18.10;10.23;;;7.60;99.90;;;5.99;100.00;99965.44;10402925;28;96917;-79
2023/04/16 06:09:49;;;;;;;21.17;12.00;;;7.70;99.90;;;6.12;100.00;99973.88;10415556;27;96672;-78
2023/04/16 06:14:52;;;;;;;30.43;17.90;;;7.90;99.90;;;6.25;100.00;99973.53;10376790;27;98461;-78
2023/04/16 06:19:55;;;;;;;16.43;12.00;;;8.00;99.90;;;6.30;100.00;99976.56;10405185;28;99373;-80
2023/04/16 06:24:58;;;;;;;17.33;11.57;;;8.10;99.90;;;6.36;100.00;99977.81;10406367;28;98069;-79
2023/04/16 06:30:01;;;;;;;14.93;10.97;;;8.10;99.90;;;6.43;100.00;99982.34;10387379;27;96653;-79
2023/04/16 06:35:05;;;;;;;18.27;12.53;;;8.20;99.90;;;6.49;100.00;99977.47;10396237;28;96986;-79
2023/04/16 06:40:09;;;;;;;17.70;12.80;;;8.30;99.90;;;6.58;100.00;99987.94;10385695;27;98314;-80
2023/04/16 06:45:12;;;;;;;11.20;7.97;;;8.40;99.90;;;6.64;100.00;99982.06;10394090;27;98181;-80
2023/04/16 06:50:15;;;;;;;12.03;9.00;;;8.40;99.90;;;6.76;100.00;99976.59;10402467;27;96759;-79
2023/04/16 06:55:18;;;;;;;13.07;9.53;;;8.50;99.90;;;6.85;100.00;99976.53;10410180;27;98300;-80
2023/04/16 07:00:21;;;;;;;12.97;9.83;;;8.60;99.90;;;6.97;100.00;99972.69;10400663;27;96626;-79
2023/04/16 07:05:25;;;;;;;12.23;8.20;;;8.70;99.90;;;7.27;100.00;99977.78;10399333;27;97397;-79
2023/04/16 07:10:28;;;;;;;11.27;7.93;;;9.00;99.90;;;7.59;100.00;99962.16;10398743;27;99190;-79
2023/04/16 07:15:31;;;;;;;12.50;9.23;;;9.30;99.90;;;7.96;100.00;99972.47;10403896;27;96604;-78
2023/04/16 07:20:35;;;;;;;8.80;7.10;;;9.60;99.90;;;8.35;100.00;99977.31;10400028;28;96688;-80
2023/04/16 07:25:38;;;;;;;8.80;6.53;;;9.90;99.90;;;8.69;100.00;99977.28;10382684;28;98637;-79
2023/04/16 07:30:42;;;;;;;22.13;12.07;;;10.20;99.90;;;9.04;100.00;99975.41;10396180;27;97258;-79
2023/04/16 07:35:46;;;;;;;18.07;12.40;;;10.50;99.90;;;9.52;100.00;99973.78;10399437;27;96860;-80
2023/04/16 07:40:49;;;;;;;12.70;10.50;;;10.80;99.90;;;10.02;100.00;99978.88;10395782;27;96742;-79
2023/04/16 07:45:52;;;;;;;9.33;6.97;;;11.20;99.90;;;10.81;100.00;99973.59;10389426;27;98590;-80
2023/04/16 07:50:55;;;;;;;10.07;8.37;;;11.80;99.90;;;11.04;100.00;99963.00;10384356;28;98469;-80
2023/04/16 07:55:58;;;;;;;9.60;6.47;;;12.00;99.90;;;11.26;100.00;99952.34;10408853;28;96558;-79
2023/04/16 08:01:02;;;;;;;6.07;5.13;;;12.20;99.90;;;11.62;100.00;99953.53;10409612;28;96523;-80
2023/04/16 08:06:05;;;;;;;5.57;4.67;;;12.40;99.90;;;11.87;100.00;99954.16;10393964;28;96577;-79
2023/04/16 08:11:08;;;;;;;5.03;4.07;;;12.70;99.90;;;12.10;100.00;99962.06;10411898;27;96762;-79
2023/04/16 08:16:11;;;;;;;5.05;3.78;;;13.10;99.90;;;12.24;97.19;99958.59;10426529;28;96456;-79
2023/04/16 08:21:14;;;;;;;5.15;3.72;;;13.40;99.90;;;12.24;92.09;99958.59;10408637;27;96755;-79
2023/04/16 08:26:17;;;;;;;6.28;3.58;;;13.50;99.90;;;12.38;92.28;99949.75;10391815;27;96661;-78
2023/04/16 08:31:20;;;;;;;3.78;2.85;;;13.70;99.90;;;12.33;85.80;99942.31;10370366;27;98492;-78
2023/04/16 08:36:24;;;;;;;3.95;2.80;;;13.90;99.90;;;12.39;86.83;99943.41;10390236;28;96642;-78
2023/04/16 08:41:31;;;;;;;4.10;2.10;;;14.00;99.90;;;12.60;86.68;99948.00;10390285;27;96670;-79
2023/04/16 08:46:37;;;;;;;2.53;1.83;;;14.20;99.90;;;12.88;81.86;99956.09;10415535;27;96599;-79
2023/04/16 08:51:43;;;;;;;2.50;1.40;;;14.50;99.90;;;13.20;79.24;99946.78;10388482;28;96688;-80
2023/04/16 08:56:48;;;;;;;3.78;1.55;;;14.90;99.90;;;13.57;77.18;99958.22;10406573;27;96626;-79
2023/04/16 09:01:56;;;;;;;2.38;1.52;;;15.30;99.90;;;13.90;74.38;99963.78;10405797;27;96676;-79
2023/04/16 09:07:01;;;;;;;2.65;1.48;;;15.60;99.90;;;14.17;68.86;99967.47;10382428;27;98587;-79
2023/04/16 09:12:04;;;;;;;2.88;1.73;;;15.90;99.90;;;14.43;67.55;99966.78;10390294;28;96611;-80
2023/04/16 09:17:08;;;;;;;14.32;2.13;;;16.10;99.90;;;14.70;66.35;99967.75;10406176;27;96547;-79
2023/04/16 09:22:11;;;;;;;3.15;1.52;;;16.40;99.90;;;14.81;64.32;99964.47;10386754;27;98278;-80
2023/04/16 09:27:15;;;;;;;3.70;1.50;;;16.50;98.20;;;14.96;63.68;99967.84;10388620;28;96557;-80
2023/04/16 09:32:26;;;;;;;3.55;1.33;;;16.70;98.10;;;15.27;64.09;99969.13;10386207;27;97584;-80
2023/04/16 09:37:29;;;;;;;;;;;17.00;98.70;;;15.42;62.14;99972.47;10388410;27;98404;-80
2023/04/16 09:42:36;;;;;;;1.30;0.95;;;17.20;97.10;;;15.48;61.07;99978.84;10405320;27;96699;-80
2023/04/16 09:47:44;;;;;;;1.42;1.00;;;17.30;96.90;;;15.20;59.49;99989.72;10383751;27;98240;-80
2023/04/16 09:52:52;;;;;;;1.95;0.90;;;17.10;95.10;;;14.83;58.16;99989.19;10386947;28;96685;-80
2023/04/16 09:57:59;;;;;;;1.90;1.13;;;16.90;93.30;;;14.52;59.21;99987.03;10386607;28;98370;-80
2023/04/16 10:03:05;;;;;;;1.63;1.08;;;16.60;93.50;;;14.23;60.09;99984.56;10399565;27;98128;-80
2023/04/16 10:08:13;;;;;;;1.90;1.00;;;16.30;93.50;;;14.00;59.69;99985.66;10416997;27;96682;-80
2023/04/16 10:13:18;;;;;;;3.00;1.52;;;16.00;93.00;;;13.84;62.98;99985.94;10403584;27;96491;-81
2023/04/16 10:18:22;;;;;;;1.20;0.95;;;15.90;94.10;;;13.80;62.25;99976.69;10420760;27;97231;-81
2023/04/16 10:23:25;;;;;;;1.98;1.65;;;15.80;94.30;;;13.82;63.68;99979.97;10401325;27;98263;-80
2023/04/16 10:28:29;;;;;;;5.43;3.00;;;15.80;94.40;;;13.85;63.47;99972.41;10401487;27;96601;-81
2023/04/16 10:33:36;;;;;;;1.58;1.00;;;15.80;94.40;;;13.91;63.12;99979.66;10383039;27;97329;-81
2023/04/16 10:38:48;;;;;;;2.05;1.00;;;15.80;94.30;;;14.02;62.89;99985.44;10383074;27;97222;-81
2023/04/16 10:43:52;;;;;;;2.65;1.17;;;16.00;94.50;;;14.09;62.74;99978.28;10381991;27;97467;-81
2023/04/16 10:49:11;;;;;;;3.13;1.13;;;16.00;94.10;;;14.11;61.07;99976.28;10382868;28;98268;-80
2023/04/16 10:54:20;;;;;;;2.33;1.40;;;16.10;93.70;;;14.14;63.25;99979.38;10406630;27;98240;-80
2023/04/16 10:59:24;;;;;;;5.07;3.22;;;16.10;94.10;;;14.27;61.86;99967.09;10414752;27;97113;-81
2023/04/16 11:04:33;;;;;;;2.25;1.25;;;16.20;94.20;;;14.42;62.67;99965.97;10386559;27;96918;-82
2023/04/16 11:09:58;;;;;;;2.78;0.80;;;16.40;93.80;;;14.82;62.20;99966.16;10390582;28;98575;-80
2023/04/16 11:15:07;;;;;;;1.50;1.00;;;16.80;93.90;;;15.18;59.67;99949.78;10399250;27;96775;-80
2023/04/16 11:20:27;;;;;;;1.33;0.73;;;17.20;92.60;;;15.63;57.16;99952.69;10391079;28;96580;-81
2023/04/16 11:25:32;;;;;;;1.83;0.90;;;17.50;91.40;;;16.15;59.07;99948.31;10397412;28;98247;-80
2023/04/16 11:30:37;;;;;;;1.35;0.82;;;18.00;92.80;;;16.76;55.34;99942.53;10382532;28;97511;-82
2023/04/16 11:35:42;;;;;;;1.27;0.70;;;18.70;91.20;;;17.35;56.22;99935.97;10398621;27;96578;-81
2023/04/16 11:40:48;;;;;;;1.10;0.60;;;19.40;91.20;;;17.94;52.99;99936.50;10381512;28;97425;-85
2023/04/16 11:46:02;;;;;;;0.85;0.60;;;20.10;90.00;;;18.24;50.11;99923.16;10400415;28;98780;-83
2023/04/16 11:51:22;;;;;;;1.58;0.80;;;20.40;84.30;;;18.05;49.41;99925.03;10371045;27;98051;-83
2023/04/16 11:56:31;;;;;;;2.30;0.70;;;20.30;79.80;;;17.83;48.44;99926.50;10399961;27;96559;-82
2023/04/16 12:01:36;;;;;;;2.67;0.90;;;20.10;78.40;;;17.71;48.75;99929.03;10388668;28;97360;-83
2023/04/16 12:06:40;;;;;;;1.52;0.70;;;19.90;78.20;;;17.44;50.05;99925.75;10385667;27;98333;-84
2023/04/16 12:11:43;;;;;;;1.90;0.82;;;19.60;77.30;;;17.47;49.73;99919.13;10384066;28;97159;-83
2023/04/16 12:16:46;;;;;;;1.20;0.80;;;19.70;78.20;;;17.39;49.64;99913.00;10384075;27;98440;-83
2023/04/16 12:21:50;;;;;;;4.35;1.15;;;19.60;77.20;;;17.37;50.95;99909.69;10379766;27;96688;-83
2023/04/16 12:27:01;;;;;;;1.85;0.70;;;19.50;77.80;;;17.16;49.56;99904.72;10380209;28;98465;-85
2023/04/16 12:32:21;;;;;;;1.63;0.60;;;19.40;75.40;;;17.10;48.78;99909.09;10400803;27;96570;-83
2023/04/16 12:37:25;;;;;;;3.60;0.70;;;19.40;74.20;;;17.44;48.72;99900.75;10370550;27;96575;-83
2023/04/16 12:42:34;;;;;;;2.05;0.82;;;19.70;74.70;;;17.82;49.17;99897.97;10400168;28;96556;-84
2023/04/16 12:47:37;;;;;;;1.05;0.60;;;20.10;74.90;;;17.81;48.76;99891.78;10405235;27;96776;-84
2023/04/16 12:52:40;;;;;;;1.67;0.93;;;20.10;73.40;;;17.43;46.92;99893.75;10403880;27;96568;-86
2023/04/16 12:57:43;;;;;;;1.45;0.77;;;19.70;70.50;;;17.01;47.96;99886.22;10424321;28;97270;-86
2023/04/16 13:02:46;;;;;;;1.75;0.50;;;19.30;70.70;;;16.80;48.95;99876.66;10394268;28;96605;-84
2023/04/16 13:07:50;;;;;;;1.60;0.88;;;18.90;72.20;;;16.63;49.51;99888.09;10390912;28;96563;-86
2023/04/16 13:12:53;;;;;;;1.75;0.68;;;18.70;72.70;;;16.48;49.74;99883.00;10414112;28;96893;-85
2023/04/16 13:17:56;;;;;;;2.30;0.60;;;18.50;73.20;;;16.40;51.25;99875.22;10406149;28;97027;-82
2023/04/16 13:22:59;;;;;;;1.23;0.60;;;18.40;74.10;;;16.49;51.72;99879.28;10404502;28;96611;-82
2023/04/16 13:28:02;;;;;;;1.55;0.60;;;18.40;75.10;;;16.56;50.73;99867.50;10404126;28;96557;-82
2023/04/16 13:33:05;;;;;;;2.33;0.70;;;18.60;75.00;;;16.64;50.18;99862.91;10383870;27;97446;-81
2023/04/16 13:38:08;;;;;;;1.95;1.05;;;18.60;73.60;;;16.81;51.30;99862.22;10398939;27;96551;-81
2023/04/16 13:43:12;;;;;;;1.95;1.23;;;18.90;74.60;;;17.08;47.84;99856.63;10389583;28;96443;-82
2023/04/16 13:48:16;;;;;;;3.47;2.10;;;19.30;72.20;;;17.33;47.56;99857.47;10400988;27;97024;-81
2023/04/16 13:53:20;;;;;;;1.38;0.73;;;19.50;72.30;;;17.35;48.28;99852.69;10417695;27;96692;-82
2023/04/16 13:58:24;;;;;;;0.93;0.50;;;19.50;71.10;;;17.44;47.25;99847.03;10399986;27;97317;-81
2023/04/16 14:03:27;;;;;;;1.92;0.57;;;19.60;70.30;;;17.43;48.16;99845.41;10420962;27;97773;-82
2023/04/16 14:08:31;;;;;;;1.58;0.60;;;19.60;70.00;;;17.36;46.37;99850.84;10419107;28;96535;-82
2023/04/16 14:13:34;;;;;;;2.45;0.73;;;19.50;69.40;;;17.29;47.12;99850.91;10401735;28;96703;-82
2023/04/16 14:18:41;;;;;;;0.98;0.70;;;19.30;69.60;;;17.20;47.21;99835.28;10381112;28;98702;-82
2023/04/16 14:23:44;;;;;;;1.20;0.57;;;19.20;69.50;;;17.19;46.93;99833.63;10406107;28;96676;-82
2023/04/16 14:28:47;;;;;;;1.98;1.00;;;19.10;70.00;;;17.22;48.92;99842.09;10408342;27;96744;-82
2023/04/16 14:33:50;;;;;;;1.40;0.73;;;19.10;71.00;;;17.21;48.30;99829.69;10389030;27;96828;-82
2023/04/16 14:38:53;;;;;;;4.90;1.10;;;19.20;70.20;;;17.14;46.47;99818.19;10386855;27;97453;-83
2023/04/16 14:43:58;;;;;;;1.30;0.68;;;19.20;70.10;;;17.12;47.13;99828.31;10375283;27;96784;-82
2023/04/16 14:49:01;;;;;;;1.27;0.52;;;19.10;69.50;;;16.96;43.78;99824.31;10386138;27;96741;-82
2023/04/16 14:54:04;;;;;;;0.98;0.55;;;18.90;66.60;;;16.86;44.02;99834.72;10402612;27;96624;-82
2023/04/16 14:59:07;;;;;;;0.68;0.40;;;18.80;66.40;;;16.88;46.70;99821.09;10399696;27;96600;-82
2023/04/16 15:04:10;;;;;;;4.28;1.85;;;18.90;66.90;;;16.87;47.33;99822.13;10400331;28;96777;-82
2023/04/16 15:09:13;;;;;;;2.95;1.13;;;18.90;67.00;;;16.82;46.85;99818.22;10415255;27;98343;-81
2023/04/16 15:14:17;;;;;;;1.42;0.60;;;18.90;67.70;;;16.76;47.37;99819.09;10392100;28;96742;-81
2023/04/16 15:19:20;;;;;;;2.00;0.65;;;18.80;67.50;;;16.62;44.43;99819.38;10421411;27;96646;-81
2023/04/16 15:24:25;;;;;;;1.85;0.50;;;18.70;65.90;;;16.44;43.64;99822.81;10397142;28;96636;-78
2023/04/16 15:29:29;;;;;;;1.30;0.70;;;18.50;64.70;;;16.30;44.75;99820.16;10377203;27;96577;-79
2023/04/16 15:34:32;;;;;;;2.20;0.50;;;18.40;65.20;;;16.22;45.83;99833.81;10393855;27;97376;-79
2023/04/16 15:39:35;;;;;;;0.93;0.60;;;18.20;65.70;;;16.24;47.69;99825.56;10395592;27;98563;-79
2023/04/16 15:44:38;;;;;;;2.60;0.50;;;18.20;67.10;;;16.25;47.33;99830.72;10416896;27;97777;-79
2023/04/16 15:49:41;;;;;;;0.98;0.60;;;18.20;66.80;;;16.30;49.25;99825.53;10383319;27;96634;-80
2023/04/16 15:54:44;;;;;;;1.10;0.50;;;18.30;67.10;;;16.38;48.61;99823.66;10397420;27;96657;-80
2023/04/16 15:59:47;;;;;;;1.38;0.60;;;18.40;67.70;;;16.31;46.56;99821.84;10394548;27;97407;-79
2023/04/16 16:05:10;;;;;;;1.48;0.60;;;18.30;66.70;;;16.30;47.45;99824.72;10411673;27;97381;-79
2023/04/16 16:10:14;;;;;;;1.30;0.60;;;18.30;67.60;;;16.28;47.97;99826.78;10366373;27;99074;-80
2023/04/16 16:15:17;;;;;;;1.15;0.70;;;18.20;68.00;;;16.24;49.47;99836.28;10396762;27;96690;-82
2023/04/16 16:20:21;;;;;;;3.47;1.25;;;18.20;68.50;;;16.15;49.05;99835.72;10386997;27;98986;-79
2023/04/16 16:25:24;;;;;;;3.08;1.40;;;18.10;68.50;;;16.02;49.44;99835.78;10423270;28;98266;-78
2023/04/16 16:30:27;;;;;;;2.80;1.27;;;18.00;69.00;;;15.86;49.42;99834.38;10407826;28;96703;-79
2023/04/16 16:35:30;;;;;;;2.08;1.15;;;17.80;69.30;;;15.78;50.49;99830.09;10366019;28;98054;-79
2023/04/16 16:40:33;;;;;;;2.42;1.60;;;17.70;70.00;;;15.79;50.16;99831.72;10392311;28;98231;-79
2023/04/16 16:45:37;;;;;;;7.10;4.10;;;17.70;70.00;;;15.67;49.79;99836.09;10424230;28;96596;-79
2023/04/16 16:50:40;;;;;;;4.25;1.40;;;17.60;69.60;;;15.40;50.08;99840.63;10390998;28;96642;-79
2023/04/16 16:55:43;;;;;;;2.65;1.20;;;17.30;70.20;;;15.11;50.68;99836.50;10404019;28;96568;-79
2023/04/16 17:00:45;;;;;;;2.42;1.20;;;17.00;70.70;;;14.86;51.52;99846.19;10403791;28;96499;-79
2023/04/16 17:05:49;;;;;;;2.42;1.20;;;16.70;71.10;;;14.60;52.79;99842.44;10403470;28;98408;-79
2023/04/16 17:10:52;;;;;;;3.28;1.67;;;16.40;72.00;;;14.38;53.93;99855.09;10402968;28;96590;-79
2023/04/16 17:15:55;;;;;;;3.15;1.55;;;16.20;72.90;;;14.19;55.43;99864.69;10405889;28;96928;-80
2023/04/16 17:20:58;;;;;;;5.78;3.50;;;16.10;74.00;;;13.97;56.59;99859.66;10401603;27;99160;-80
2023/04/16 17:26:01;;;;;;;7.53;5.07;;;15.80;74.70;;;13.72;57.35;99860.13;10422198;28;98532;-79
2023/04/16 17:31:07;;;;;;;4.68;2.50;;;15.60;75.70;;;13.51;58.29;99861.03;10404811;28;96448;-80
2023/04/16 17:36:10;;;;;;;2.47;1.80;;;15.40;76.40;;;13.34;59.58;99865.03;10399490;28;96802;-79
2023/04/16 17:41:13;;;;;;;3.90;1.70;;;15.10;77.60;;;13.15;61.07;99868.34;10366750;28;98257;-79
2023/04/16 17:46:16;;;;;;;7.87;3.20;;;15.00;78.60;;;13.01;62.11;99880.72;10389695;27;98598;-78
2023/04/16 17:51:19;;;;;;;5.63;2.20;;;14.80;79.50;;;12.90;63.26;99884.72;10388879;28;96577;-77
2023/04/16 17:56:22;;;;;;;3.23;1.70;;;14.70;80.40;;;12.79;64.27;99893.22;10398181;27;98287;-80
2023/04/16 18:01:26;;;;;;;4.67;2.73;;;14.60;81.20;;;12.67;65.85;99900.06;10409596;27;97294;-78
2023/04/16 18:06:29;;;;;;;14.17;6.40;;;14.50;82.80;;;12.55;66.76;99905.91;10402675;27;97524;-78
2023/04/16 18:11:32;;;;;;;5.63;3.00;;;14.40;83.80;;;12.48;67.44;99905.00;10398831;27;96688;-79
2023/04/16 18:16:35;;;;;;;2.30;1.70;;;14.30;84.60;;;12.44;68.08;99892.22;10397840;27;96903;-78
2023/04/16 18:21:38;;;;;;;1.97;1.23;;;14.20;85.70;;;12.39;68.84;99884.78;10404513;27;96609;-79
2023/04/16 18:26:41;;;;;;;3.63;2.00;;;14.20;87.60;;;12.37;69.09;99892.16;10384009;27;96780;-79
2023/04/16 18:31:49;;;;;;;3.37;1.90;;;14.10;88.40;;;12.37;69.00;99900.16;10413641;27;96723;-79
2023/04/16 18:36:52;;;;;;;6.00;1.70;;;14.10;89.20;;;12.38;69.51;99904.47;10390755;27;97458;-80
2023/04/16 18:41:56;;;;;;;2.40;1.67;;;14.10;90.00;;;12.38;69.61;99923.13;10383831;27;98741;-79
2023/04/16 18:46:59;;;;;;;4.67;1.80;;;14.10;90.40;;;12.36;70.22;99922.47;10389937;27;98837;-79
2023/04/16 18:52:02;;;;;;;3.93;2.00;;;14.10;90.50;;;12.29;70.57;99905.56;10400268;28;96585;-78
2023/04/16 18:57:05;;;;;;;1.80;1.30;;;14.00;91.20;;;12.28;69.58;99895.91;10368889;28;96561;-79
2023/04/16 19:02:08;;;;;;;2.23;1.53;;;14.00;91.10;;;12.28;69.45;99890.59;10386747;27;97941;-78
2023/04/16 19:07:11;;;;;;;3.50;1.90;;;14.00;91.00;;;12.29;68.73;99889.56;10382076;27;97430;-79
2023/04/16 19:12:15;;;;;;;2.03;1.33;;;14.00;91.00;;;12.28;68.67;99901.25;10395147;28;96714;-78
2023/04/16 19:17:18;;;;;;;2.57;1.70;;;14.00;90.90;;;12.23;69.10;99892.97;10376242;28;97350;-79
2023/04/16 19:22:20;;;;;;;10.33;4.00;;;14.00;91.00;;;12.14;69.33;99889.63;10416367;28;97503;-79
2023/04/16 19:27:27;;;;;;;7.30;3.33;;;13.90;91.10;;;12.15;68.25;99880.59;10401004;28;96531;-78
2023/04/16 19:32:30;;;;;;;5.97;2.00;;;13.90;91.00;;;12.16;67.63;99892.91;10394741;27;97438;-78
2023/04/16 19:37:33;;;;;;;3.13;1.40;;;13.90;90.90;;;12.16;67.69;99892.09;10377425;27;96566;-78
2023/04/16 19:42:36;;;;;;;4.67;1.83;;;13.90;90.90;;;12.10;68.14;99892.81;10418407;27;98898;-88
2023/04/16 19:47:39;;;;;;;10.53;3.70;;;13.90;91.00;;;11.99;69.32;99894.94;10393376;27;97196;-86
2023/04/16 19:52:43;;;;;;;11.87;4.87;;;13.80;91.30;;;11.89;69.01;99886.41;10397954;27;98522;-86
2023/04/16 19:57:47;;;;;;;5.50;2.93;;;13.70;91.40;;;11.89;67.71;99889.06;10366108;27;96617;-85
2023/04/16 20:02:50;;;;;;;2.70;1.47;;;13.70;91.20;;;11.99;65.85;99886.94;10405050;27;96550;-84
2023/04/16 20:07:54;;;;;;;2.37;1.53;;;13.70;90.70;;;12.09;65.36;99885.84;10402171;28;97446;-87
2023/04/16 20:12:59;;;;;;;1.67;1.00;;;13.80;90.40;;;12.24;64.05;99892.81;10388175;28;96694;-87
2023/04/16 20:18:02;;;;;;;1.47;1.00;;;14.00;89.90;;;12.34;63.83;99889.84;10397138;27;98536;-87
2023/04/16 20:23:05;;;;;;;1.70;0.90;;;14.10;89.50;;;12.39;63.42;99882.13;10402373;28;96686;-86
2023/04/16 20:28:09;;;;;;;2.20;0.97;;;14.10;88.80;;;12.46;63.40;99877.69;10405124;27;96867;-87
2023/04/16 20:33:11;;;;;;;1.60;1.00;;;14.20;88.70;;;12.51;62.85;99891.28;10392233;27;98620;-88
2023/04/16 20:38:15;;;;;;;1.20;0.90;;;14.20;88.40;;;12.52;63.33;99892.09;10389090;28;98344;-88
2023/04/16 20:43:18;;;;;;;1.77;1.00;;;14.30;88.60;;;12.45;63.60;99876.03;10402388;27;96697;-86
2023/04/16 20:48:21;;;;;;;1.30;0.90;;;14.30;88.70;;;12.40;64.13;99883.78;10388561;28;98204;-88
2023/04/16 20:53:24;;;;;;;1.27;0.93;;;14.20;89.10;;;12.32;64.67;99883.88;10405991;27;96612;-86
2023/04/16 20:58:27;;;;;;;1.57;0.90;;;14.10;89.20;;;12.29;64.90;99886.91;10402553;28;96578;-85